Time;durP1;ratioP1;P1;durP2;ratioP2;P2;SDS_P1;SDS_P2;PMS_P1;PMS_P2;Temp;Humidity;BMP_temperature;BMP_pressure;BME280_temperature;BME280_humidity;BME280_pressure;Samples;Min_cycle;Max_cycle;Signal;HPM_P1;HPM_P2
2021/12/13 00:00:29;;;;;;;48.90;25.08;;;;;;;5.14;100.00;101480.31;5061278;28;20152;-53
2021/12/13 00:03:22;;;;;;;48.38;25.30;;;;;;;5.23;100.00;101486.34;5061254;28;20669;-52
2021/12/13 00:06:20;;;;;;;39.92;23.58;;;;;;;5.26;100.00;101482.84;5044927;28;20135;-53
2021/12/13 00:08:52;;;;;;;41.05;23.75;;;;;;;5.27;100.00;101476.72;5055829;28;20052;-54
2021/12/13 00:11:25;;;;;;;39.92;23.83;;;;;;;5.22;100.00;101481.13;5063455;28;20044;-54
2021/12/13 00:14:16;;;;;;;43.83;24.55;;;;;;;5.23;100.00;101472.34;5062073;28;20108;-55
2021/12/13 00:17:03;;;;;;;38.72;23.40;;;;;;;5.25;100.00;101478.47;5058801;28;20766;-52
2021/12/13 00:19:55;;;;;;;42.45;24.17;;;;;;;5.30;100.00;101481.94;5062829;28;20426;-54
2021/12/13 00:22:41;;;;;;;38.85;23.13;;;;;;;5.26;100.00;101486.34;5059722;28;20040;-54
2021/12/13 00:25:25;;;;;;;40.72;23.05;;;;;;;5.21;100.00;101487.25;5058812;28;20102;-52
2021/12/13 00:28:13;;;;;;;41.80;22.98;;;;;;;5.21;100.00;101490.75;5058864;28;20871;-53
2021/12/13 00:31:17;;;;;;;39.83;22.92;;;;;;;5.23;100.00;101485.47;5077908;28;20148;-52
2021/12/13 00:34:30;;;;;;;41.08;22.63;;;;;;;5.24;100.00;101480.22;5076540;28;20044;-52
2021/12/13 00:37:04;;;;;;;41.40;23.25;;;;;;;5.20;100.00;101481.13;5073801;28;20441;-54
2021/12/13 00:39:56;;;;;;;40.22;23.23;;;;;;;5.21;100.00;101484.63;5075815;28;20052;-55
2021/12/13 00:42:32;;;;;;;37.97;21.65;;;;;;;5.09;100.00;101471.59;5080473;28;20055;-53
2021/12/13 00:45:06;;;;;;;37.83;21.77;;;;;;;5.20;100.00;101488.13;5079630;28;20059;-54
2021/12/13 00:47:58;;;;;;;40.10;22.45;;;;;;;5.20;100.00;101488.13;5059530;28;20351;-51
2021/12/13 00:50:48;;;;;;;39.25;22.27;;;;;;;5.25;100.00;101489.84;5075838;28;20054;-54
2021/12/13 00:53:21;;;;;;;36.45;22.10;;;;;;;5.23;100.00;101494.22;5071783;28;20126;-52
2021/12/13 00:55:54;;;;;;;38.50;21.92;;;;;;;5.24;100.00;101495.97;5063370;28;20552;-52
2021/12/13 00:58:23;;;;;;;40.25;22.92;;;;;;;5.20;100.00;101499.50;5075529;28;20536;-52
2021/12/13 01:00:54;;;;;;;37.38;21.95;;;;;;;5.25;100.00;101499.47;5078330;28;20151;-53
2021/12/13 01:03:53;;;;;;;40.03;22.27;;;;;;;5.27;100.00;101492.47;5078319;28;20137;-52
2021/12/13 01:07:10;;;;;;;39.10;22.70;;;;;;;5.26;100.00;101493.34;5078250;28;20109;-53
2021/12/13 01:10:18;;;;;;;36.13;21.92;;;;;;;5.28;100.00;101497.72;5021651;28;20526;-53
2021/12/13 01:12:51;;;;;;;34.17;19.92;;;;;;;5.29;100.00;101502.06;5077935;28;20055;-52
2021/12/13 01:15:34;;;;;;;34.90;21.35;;;;;;;5.28;100.00;101502.97;5079970;28;20505;-53
2021/12/13 01:18:56;;;;;;;34.63;20.42;;;;;;;5.32;100.00;101497.69;5050657;28;20052;-53
2021/12/13 01:21:56;;;;;;;33.05;19.95;;;;;;;5.39;100.00;101502.00;5047353;28;20058;-53
2021/12/13 01:27:30;;;;;;;29.70;19.65;;;;;;;5.36;100.00;101509.88;5081167;28;20052;-52
2021/12/13 01:30:07;;;;;;;33.38;19.40;;;;;;;5.41;100.00;101513.38;5066383;28;20056;-51
2021/12/13 01:32:57;;;;;;;29.70;18.40;;;;;;;5.43;100.00;101508.97;5042419;28;20044;-51
2021/12/13 01:35:28;;;;;;;30.33;19.23;;;;;;;5.40;100.00;101495.84;5058538;28;20639;-52
2021/12/13 01:38:15;;;;;;;31.85;18.98;;;;;;;5.41;100.00;101502.84;5061272;28;20052;-54
2021/12/13 01:40:54;;;;;;;34.35;19.63;;;;;;;5.41;100.00;101506.34;5056788;28;20053;-52
2021/12/13 01:43:32;;;;;;;32.30;18.15;;;;;;;5.40;100.00;101511.63;5059093;28;20048;-54
2021/12/13 01:45:59;;;;;;;31.88;18.60;;;;;;;5.39;100.00;101509.88;5063369;28;20057;-52
2021/12/13 01:48:42;;;;;;;31.00;17.75;;;;;;;5.45;100.00;101512.47;5058565;28;20055;-54
2021/12/13 01:51:16;;;;;;;33.85;18.10;;;;;;;5.43;100.00;101515.09;5056097;28;20052;-52
2021/12/13 01:53:58;;;;;;;;;;;;;;;5.44;100.00;101519.47;5059413;28;20060;-52
2021/12/13 01:56:43;;;;;;;26.45;16.55;;;;;;;5.49;100.00;101527.31;5059170;28;20002;-55
2021/12/13 02:02:36;;;;;;;29.50;17.50;;;;;;;5.47;100.00;101514.19;5058257;28;20056;-53
2021/12/13 02:05:06;;;;;;;26.48;16.33;;;;;;;5.49;100.00;101515.06;5045983;28;20438;-53
2021/12/13 02:07:55;;;;;;;32.40;17.30;;;;;;;5.51;100.00;101508.00;5054632;28;20056;-52
2021/12/13 02:11:01;;;;;;;28.98;17.33;;;;;;;5.51;100.00;101510.63;5060199;28;20067;-55
2021/12/13 02:13:38;;;;;;;30.45;16.33;;;;;;;5.51;100.00;101518.53;5050569;28;20056;-52
2021/12/13 02:19:07;;;;;;;29.15;16.63;;;;;;;5.55;100.00;101515.00;5053007;28;20056;-56
2021/12/13 02:21:37;;;;;;;31.55;16.58;;;;;;;5.62;100.00;101521.06;5064623;28;20422;-53
2021/12/13 02:24:11;;;;;;;26.08;16.05;;;;;;;5.61;100.00;101530.72;5065648;28;20055;-54
2021/12/13 02:26:58;;;;;;;29.67;15.82;;;;;;;5.57;100.00;101530.75;5062099;28;20056;-54
2021/12/13 02:29:38;;;;;;;26.15;15.60;;;;;;;5.53;100.00;101526.38;5055459;28;20056;-52
2021/12/13 02:32:35;;;;;;;25.00;16.00;;;;;;;5.49;100.00;101520.31;5054035;28;20052;-52
2021/12/13 02:35:17;;;;;;;26.17;16.23;;;;;;;5.52;100.00;101522.03;5039782;28;20051;-51
2021/12/13 02:38:06;;;;;;;28.67;16.63;;;;;;;5.53;100.00;101526.38;5056584;28;20045;-52
2021/12/13 02:40:38;;;;;;;26.17;16.20;;;;;;;5.61;100.00;101528.09;5059327;28;20493;-52
2021/12/13 02:43:16;;;;;;;27.50;15.98;;;;;;;5.60;100.00;101518.47;5056591;28;20045;-52
2021/12/13 02:45:51;;;;;;;31.73;16.63;;;;;;;5.62;100.00;101528.97;5061479;28;20040;-54
2021/12/13 02:48:34;;;;;;;23.15;15.70;;;;;;;5.62;100.00;101531.59;5056364;28;20060;-54
2021/12/13 02:51:33;;;;;;;28.40;17.00;;;;;;;5.60;100.00;101534.22;5057865;28;20124;-54
2021/12/13 02:54:39;;;;;;;25.35;16.10;;;;;;;5.59;100.00;101529.84;5043948;28;20053;-54
2021/12/13 02:57:25;;;;;;;26.55;16.02;;;;;;;5.61;100.00;101535.09;5055151;28;20102;-55
2021/12/13 03:00:27;;;;;;;27.75;16.63;;;;;;;5.63;100.00;101531.56;5051322;28;20068;-54
2021/12/13 03:03:27;;;;;;;26.63;15.82;;;;;;;5.62;100.00;101526.34;5036472;28;20049;-52
2021/12/13 03:05:55;;;;;;;27.80;16.63;;;;;;;5.67;100.00;101529.75;5047894;28;20058;-51
2021/12/13 03:08:53;;;;;;;26.17;16.50;;;;;;;5.69;100.00;101525.38;5048546;28;20040;-52
2021/12/13 03:11:29;;;;;;;26.98;17.10;;;;;;;5.71;100.00;101530.63;5031160;28;20060;-55
2021/12/13 03:14:34;;;;;;;30.23;17.30;;;;;;;5.68;100.00;101523.63;5056641;28;20055;-53
2021/12/13 03:17:20;;;;;;;27.45;16.40;;;;;;;5.68;100.00;101534.13;5020582;28;20048;-54
2021/12/13 03:20:02;;;;;;;27.35;17.80;;;;;;;5.62;100.00;101532.47;5055616;28;20468;-51
2021/12/13 03:23:02;;;;;;;29.67;16.45;;;;;;;5.63;100.00;101528.94;5052043;28;20048;-55
2021/12/13 03:25:51;;;;;;;28.27;17.73;;;;;;;5.66;100.00;101528.06;5058234;28;20044;-53
2021/12/13 03:28:55;;;;;;;31.80;18.13;;;;;;;5.62;100.00;101531.59;5055440;28;20045;-53
2021/12/13 03:31:34;;;;;;;27.70;18.77;;;;;;;5.59;100.00;101531.59;5075486;28;20453;-52
2021/12/13 03:34:19;;;;;;;31.00;18.50;;;;;;;5.57;100.00;101531.63;5076868;28;20048;-52
2021/12/13 03:37:16;;;;;;;29.85;17.88;;;;;;;5.55;100.00;101527.25;5070262;28;20056;-52
2021/12/13 03:39:55;;;;;;;32.03;19.17;;;;;;;5.54;100.00;101528.13;5074821;28;20639;-52
2021/12/13 03:42:27;;;;;;;36.03;19.80;;;;;;;5.55;100.00;101527.25;5076619;28;20037;-53
2021/12/13 03:44:57;;;;;;;34.65;19.23;;;;;;;5.51;100.00;101529.03;5077746;28;20051;-53
2021/12/13 03:47:56;;;;;;;30.98;19.52;;;;;;;5.51;100.00;101528.19;5075088;28;20060;-55
2021/12/13 03:50:30;;;;;;;32.15;19.83;;;;;;;5.50;100.00;101527.31;5068163;28;20071;-53
2021/12/13 03:53:00;;;;;;;34.75;20.65;;;;;;;5.48;100.00;101531.72;5074498;28;20041;-52
2021/12/13 03:55:30;;;;;;;32.97;20.20;;;;;;;5.46;100.00;101536.09;5078340;28;20063;-54
2021/12/13 03:58:05;;;;;;;;;;;;;;;5.51;100.00;101538.69;5077896;28;20056;-53
2021/12/13 04:00:50;;;;;;;32.10;19.35;;;;;;;5.52;100.00;101543.91;5059215;28;20016;-53
2021/12/13 04:03:19;;;;;;;35.92;20.33;;;;;;;5.51;100.00;101533.44;5076045;28;20134;-53
2021/12/13 04:05:56;;;;;;;33.13;20.02;;;;;;;5.55;100.00;101532.50;5075667;28;20049;-54
2021/12/13 04:09:07;;;;;;;33.13;19.80;;;;;;;5.52;100.00;101540.41;5058881;28;20043;-53
2021/12/13 04:11:44;;;;;;;35.33;20.80;;;;;;;5.52;100.00;101537.78;5074058;28;20485;-53
2021/12/13 04:14:41;;;;;;;34.13;19.77;;;;;;;5.53;100.00;101529.00;5064811;28;20045;-52
2021/12/13 04:17:56;;;;;;;36.08;20.42;;;;;;;5.54;100.00;101536.00;5075709;28;20718;-52
2021/12/13 04:20:36;;;;;;;;;;;;;;;5.53;100.00;101537.78;5078545;28;20047;-53
2021/12/13 04:23:26;;;;;;;37.42;21.25;;;;;;;5.50;100.00;101536.94;5074238;28;19928;-54
2021/12/13 04:25:53;;;;;;;37.28;21.67;;;;;;;5.51;100.00;101543.94;5074551;28;20055;-51
2021/12/13 04:28:35;;;;;;;38.97;22.63;;;;;;;5.50;100.00;101539.56;5079737;28;20059;-52
2021/12/13 04:31:21;;;;;;;36.25;22.10;;;;;;;5.48;100.00;101549.22;5073906;28;20048;-53
2021/12/13 04:33:58;;;;;;;38.80;22.65;;;;;;;5.50;100.00;101547.47;5076048;28;20056;-54
2021/12/13 04:36:32;;;;;;;40.58;21.73;;;;;;;5.49;100.00;101551.84;5078672;28;20059;-52
2021/12/13 04:39:04;;;;;;;35.75;20.92;;;;;;;5.53;100.00;101557.91;5077785;28;20063;-52
2021/12/13 04:41:39;;;;;;;38.85;22.30;;;;;;;5.55;100.00;101558.78;5076810;28;20048;-53
2021/12/13 04:44:38;;;;;;;36.95;20.67;;;;;;;5.69;100.00;101559.53;5076720;28;20677;-51
2021/12/13 04:47:11;;;;;;;32.65;20.52;;;;;;;5.57;100.00;101542.13;5051751;28;20048;-50
2021/12/13 04:49:52;;;;;;;35.90;20.70;;;;;;;5.63;100.00;101559.59;5073622;28;20516;-53
2021/12/13 04:52:20;;;;;;;32.10;19.95;;;;;;;5.70;100.00;101568.28;5075230;28;20223;-53
2021/12/13 04:54:54;;;;;;;36.10;20.80;;;;;;;5.67;100.00;101568.34;5073865;28;20044;-53
2021/12/13 04:57:36;;;;;;;32.72;21.08;;;;;;;5.61;100.00;101566.63;5075306;28;20083;-52
2021/12/13 05:00:12;;;;;;;33.85;21.42;;;;;;;5.60;100.00;101571.00;5075265;28;20044;-53
2021/12/13 05:02:50;;;;;;;35.08;20.80;;;;;;;5.69;100.00;101563.91;5074435;28;20062;-52
2021/12/13 05:05:18;;;;;;;30.52;19.98;;;;;;;5.70;100.00;101566.53;5073751;28;20076;-52
2021/12/13 05:07:51;;;;;;;31.58;18.77;;;;;;;5.70;100.00;101570.91;5077208;28;20055;-51
2021/12/13 05:10:25;;;;;;;33.53;19.10;;;;;;;5.65;100.00;101570.97;5072612;28;20154;-54
2021/12/13 05:13:10;;;;;;;34.13;19.30;;;;;;;5.69;100.00;101567.41;5074236;28;20075;-52
2021/12/13 05:15:57;;;;;;;30.35;19.00;;;;;;;5.69;100.00;101562.16;5071924;28;20501;-52
2021/12/13 05:18:40;;;;;;;29.90;18.58;;;;;;;5.69;100.00;101562.16;5076433;28;20051;-53
2021/12/13 05:21:12;;;;;;;32.03;19.10;;;;;;;5.70;100.00;101565.66;5070895;28;20056;-51
2021/12/13 05:23:52;;;;;;;31.42;18.17;;;;;;;5.70;100.00;101570.91;5072934;28;20044;-52
2021/12/13 05:26:37;;;;;;;;;;;;;;;5.68;100.00;101570.94;5072308;28;20055;-52
2021/12/13 05:29:27;;;;;;;30.55;17.73;;;;;;;5.72;100.00;101572.66;5071852;28;19934;-53
2021/12/13 05:32:27;;;;;;;30.60;18.90;;;;;;;5.62;100.00;101563.13;5073802;28;20055;-52
2021/12/13 05:35:08;;;;;;;29.73;17.70;;;;;;;5.72;100.00;101575.28;5073428;28;20489;-53
2021/12/13 05:38:08;;;;;;;31.95;18.70;;;;;;;5.72;100.00;101580.53;5072351;28;20044;-53
2021/12/13 05:40:50;;;;;;;34.20;18.48;;;;;;;5.73;100.00;101578.78;5053369;28;20059;-53
2021/12/13 05:43:43;;;;;;;27.75;17.65;;;;;;;5.72;100.00;101585.81;5070850;28;20036;-51
2021/12/13 05:46:24;;;;;;;28.65;18.35;;;;;;;5.74;100.00;101584.03;5071907;28;20045;-52
2021/12/13 05:49:06;;;;;;;32.22;18.25;;;;;;;5.72;100.00;101575.28;5071916;28;20078;-52
2021/12/13 05:51:45;;;;;;;26.33;16.95;;;;;;;5.71;100.00;101575.28;5072910;28;20398;-53
2021/12/13 05:54:20;;;;;;;28.27;17.40;;;;;;;5.78;100.00;101580.50;5072734;28;20052;-51
2021/12/13 05:56:56;;;;;;;30.25;16.98;;;;;;;5.77;100.00;101584.00;5072402;28;20054;-52
2021/12/13 05:59:58;;;;;;;29.48;17.05;;;;;;;5.72;100.00;101585.81;5074689;28;20114;-52
2021/12/13 06:03:04;;;;;;;25.27;16.33;;;;;;;5.70;100.00;101587.56;5069392;28;20044;-51
2021/12/13 06:05:52;;;;;;;28.63;17.67;;;;;;;5.72;100.00;101584.94;5071920;28;20049;-53
2021/12/13 06:08:43;;;;;;;31.30;17.90;;;;;;;5.71;100.00;101591.94;5076265;28;20062;-53
2021/12/13 06:11:49;;;;;;;27.60;17.75;;;;;;;5.65;100.00;101578.88;5072667;28;20044;-52
2021/12/13 06:14:30;;;;;;;31.80;18.35;;;;;;;5.76;100.00;101595.41;5064216;28;20052;-52
2021/12/13 06:17:21;;;;;;;29.73;17.35;;;;;;;5.79;100.00;101599.78;5054045;28;20361;-53
2021/12/13 06:20:21;;;;;;;29.27;17.38;;;;;;;5.78;100.00;101601.53;5070061;28;20048;-52
2021/12/13 06:22:51;;;;;;;29.55;17.42;;;;;;;5.81;100.00;101606.78;5069717;28;20523;-53
2021/12/13 06:25:24;;;;;;;25.30;16.50;;;;;;;5.70;100.00;101598.06;5070671;28;20065;-54
2021/12/13 06:27:56;;;;;;;27.55;16.88;;;;;;;5.82;100.00;101613.78;5073274;28;20062;-53
2021/12/13 06:30:51;;;;;;;25.63;16.50;;;;;;;5.83;100.00;101611.97;5045139;28;20057;-53
2021/12/13 06:33:27;;;;;;;32.17;17.08;;;;;;;5.82;100.00;101608.53;5062461;28;20042;-53
2021/12/13 06:36:11;;;;;;;29.75;16.60;;;;;;;5.80;100.00;101612.91;5066695;28;20048;-51
2021/12/13 06:38:49;;;;;;;29.00;17.67;;;;;;;5.77;100.00;101612.06;5071165;28;20046;-52
2021/12/13 06:41:38;;;;;;;28.88;17.73;;;;;;;5.81;100.00;101611.16;5072294;28;20056;-53
2021/12/13 06:44:06;;;;;;;30.02;17.88;;;;;;;5.75;100.00;101613.81;5071150;28;20047;-52
2021/12/13 06:47:01;;;;;;;31.90;18.33;;;;;;;5.73;100.00;101613.81;5076088;28;20485;-53
2021/12/13 06:49:52;;;;;;;30.75;18.08;;;;;;;5.79;100.00;101619.03;5074358;28;20547;-52
2021/12/13 06:52:26;;;;;;;29.67;17.92;;;;;;;5.78;100.00;101612.03;5068134;28;20048;-53
2021/12/13 06:54:58;;;;;;;26.73;17.67;;;;;;;5.74;100.00;101610.31;5070773;28;20060;-53
2021/12/13 06:57:31;;;;;;;29.73;18.33;;;;;;;5.78;100.00;101616.44;5076012;28;20063;-54
2021/12/13 07:00:53;;;;;;;31.40;18.17;;;;;;;5.70;100.00;101616.47;5076072;28;20710;-52
2021/12/13 07:03:55;;;;;;;30.38;18.27;;;;;;;5.69;100.00;101625.25;5070236;28;20124;-52
2021/12/13 07:07:06;;;;;;;31.20;19.55;;;;;;;5.68;100.00;101636.63;5072756;28;20056;-54
2021/12/13 07:10:02;;;;;;;29.67;18.60;;;;;;;5.65;100.00;101631.44;5073499;28;20067;-52
2021/12/13 07:12:31;;;;;;;32.15;19.00;;;;;;;5.68;100.00;101636.63;5075568;28;20036;-53
2021/12/13 07:15:28;;;;;;;30.25;18.30;;;;;;;5.71;100.00;101634.00;5073112;28;20056;-54
2021/12/13 07:18:01;;;;;;;31.67;18.95;;;;;;;5.71;100.00;101639.25;5072657;28;20143;-53
2021/12/13 07:20:52;;;;;;;32.15;18.70;;;;;;;5.70;100.00;101634.00;5076050;28;20058;-54
2021/12/13 07:23:20;;;;;;;;;;;;;;;5.69;100.00;101634.88;5078263;28;20040;-52
2021/12/13 07:25:58;;;;;;;33.33;19.85;;;;;;;5.67;100.00;101639.31;5074764;28;19924;-53
2021/12/13 07:28:34;;;;;;;32.53;19.92;;;;;;;5.72;100.00;101643.63;5075315;28;20520;-53
2021/12/13 07:31:19;;;;;;;27.92;17.30;;;;;;;5.72;100.00;101641.00;5075641;28;20048;-53
2021/12/13 07:34:05;;;;;;;33.15;20.13;;;;;;;5.72;100.00;101641.00;5074420;28;20053;-53
2021/12/13 07:36:53;;;;;;;32.10;19.95;;;;;;;5.74;100.00;101640.97;5073377;28;20051;-53
2021/12/13 07:43:46;;;;;;;31.88;19.70;;;;;;;5.78;100.00;101642.72;5075832;28;20869;-54
2021/12/13 07:46:22;;;;;;;32.85;19.67;;;;;;;5.70;100.00;101631.38;5077991;28;20058;-54
2021/12/13 07:48:49;;;;;;;31.08;19.05;;;;;;;5.80;100.00;101651.47;5074368;28;20669;-53
2021/12/13 07:51:17;;;;;;;30.40;18.42;;;;;;;5.82;100.00;101660.22;5076413;28;20062;-54
2021/12/13 07:54:14;;;;;;;28.20;17.77;;;;;;;5.90;100.00;101664.56;5070798;28;20048;-53
2021/12/13 07:57:02;;;;;;;29.58;18.08;;;;;;;6.01;100.00;101658.31;5073823;28;20052;-54
2021/12/13 07:59:38;;;;;;;28.98;17.38;;;;;;;5.98;100.00;101657.47;5073530;28;20068;-53
2021/12/13 08:02:15;;;;;;;27.92;18.65;;;;;;;6.03;100.00;101653.94;5075805;28;20548;-54
2021/12/13 08:04:52;;;;;;;27.30;17.55;;;;;;;6.04;100.00;101658.31;5077982;28;20069;-53
2021/12/13 08:07:30;;;;;;;29.00;17.80;;;;;;;6.04;100.00;101664.44;5072113;28;20075;-55
2021/12/13 08:10:46;;;;;;;30.50;17.67;;;;;;;6.07;100.00;101655.66;5070966;28;20410;-53
2021/12/13 08:13:21;;;;;;;29.17;18.65;;;;;;;6.10;100.00;101671.41;5061912;28;20040;-52
2021/12/13 08:16:05;;;;;;;27.20;18.15;;;;;;;6.06;100.00;101674.94;5078437;28;20766;-54
2021/12/13 08:18:43;;;;;;;24.88;17.00;;;;;;;6.07;100.00;101676.69;5075094;28;20048;-54
2021/12/13 08:21:28;;;;;;;26.27;17.55;;;;;;;6.07;100.00;101676.69;5077056;28;20166;-53
2021/12/13 08:24:03;;;;;;;27.80;17.70;;;;;;;6.07;100.00;101688.09;5076301;28;20044;-51
2021/12/13 08:26:48;;;;;;;27.70;16.98;;;;;;;6.09;100.00;101682.81;5074003;28;20127;-53
2021/12/13 08:29:31;;;;;;;27.40;17.30;;;;;;;6.18;100.00;101683.59;5079957;28;20065;-54
2021/12/13 08:35:16;;;;;;;24.75;16.17;;;;;;;6.27;100.00;101694.06;5075867;28;20048;-55
2021/12/13 08:37:53;;;;;;;24.70;16.58;;;;;;;6.34;100.00;101692.22;5073876;28;20128;-53
2021/12/13 08:40:26;;;;;;;25.30;16.75;;;;;;;6.42;100.00;101692.19;5072954;28;20040;-53
2021/12/13 08:42:58;;;;;;;25.00;15.63;;;;;;;6.39;100.00;101687.81;5074797;28;20477;-54
2021/12/13 08:45:39;;;;;;;26.48;15.70;;;;;;;6.47;100.00;101688.59;5075509;28;20051;-52
2021/12/13 08:48:22;;;;;;;21.67;15.82;;;;;;;6.49;100.00;101693.84;5075717;28;20055;-53
2021/12/13 08:50:57;;;;;;;25.17;16.48;;;;;;;6.48;100.00;101690.34;5073070;28;20058;-52
2021/12/13 08:53:34;;;;;;;25.20;16.38;;;;;;;6.52;100.00;101697.31;5073807;28;20500;-53
2021/12/13 08:56:25;;;;;;;24.70;15.13;;;;;;;6.56;100.00;101696.41;5077161;28;20070;-53
2021/12/13 08:59:01;;;;;;;;;;;;;;;6.62;100.00;101701.59;5074553;28;20052;-53
2021/12/13 09:02:01;;;;;;;28.27;15.65;;;;;;;6.67;100.00;101706.84;5074905;28;19928;-53
2021/12/13 09:04:42;;;;;;;24.42;16.30;;;;;;;6.72;100.00;101710.31;5072626;28;20044;-53
2021/12/13 09:07:19;;;;;;;25.08;16.20;;;;;;;6.74;100.00;101702.38;5075894;28;20052;-53
2021/12/13 09:09:48;;;;;;;24.00;16.58;;;;;;;6.78;100.00;101709.34;5077570;28;20051;-56
2021/12/13 09:12:59;;;;;;;27.27;16.73;;;;;;;6.85;100.00;101711.03;5074940;28;20143;-54
2021/12/13 09:15:32;;;;;;;22.80;15.73;;;;;;;6.87;100.00;101710.13;5071769;28;20043;-52
2021/12/13 09:18:25;;;;;;;20.95;15.23;;;;;;;6.99;100.00;101712.63;5070103;28;20079;-52
2021/12/13 09:20:55;;;;;;;21.63;15.25;;;;;;;7.13;100.00;101715.09;5071601;28;20051;-54
2021/12/13 09:23:49;;;;;;;23.70;15.35;;;;;;;7.18;100.00;101705.38;5073792;28;20040;-51
2021/12/13 09:26:41;;;;;;;24.35;15.90;;;;;;;7.28;100.00;101714.91;5063323;28;20716;-54
2021/12/13 09:29:07;;;;;;;26.98;15.63;;;;;;;7.24;100.00;101696.56;5065828;28;20056;-55
2021/12/13 09:31:40;;;;;;;20.23;15.02;;;;;;;7.39;99.45;101715.66;5069344;28;22153;-52
2021/12/13 09:34:18;;;;;;;23.80;15.57;;;;;;;7.34;98.14;101719.25;5067154;28;20055;-52
2021/12/13 09:36:50;;;;;;;24.17;16.23;;;;;;;7.30;97.36;101702.59;5067652;28;20125;-52
2021/12/13 09:39:26;;;;;;;22.63;14.95;;;;;;;7.31;97.53;101711.38;5069292;28;20044;-52
2021/12/13 09:42:18;;;;;;;22.45;15.18;;;;;;;7.30;98.31;101715.78;5074776;28;20048;-55
2021/12/13 09:45:08;;;;;;;24.90;15.95;;;;;;;7.34;98.23;101713.97;5066368;28;20036;-52
2021/12/13 09:47:52;;;;;;;23.13;15.25;;;;;;;7.31;97.84;101719.28;5071454;28;20050;-52
2021/12/13 09:50:30;;;;;;;24.50;15.82;;;;;;;7.24;97.27;101705.28;5074369;28;20070;-54
2021/12/13 09:53:08;;;;;;;21.50;14.40;;;;;;;7.33;96.78;101715.72;5071603;28;20058;-52
2021/12/13 09:55:41;;;;;;;24.33;15.82;;;;;;;7.28;97.01;101717.53;5076170;28;20049;-52
2021/12/13 09:58:20;;;;;;;27.60;16.30;;;;;;;7.22;97.61;101728.19;5072554;28;20510;-51
2021/12/13 10:01:25;;;;;;;22.48;14.82;;;;;;;7.20;98.00;101718.53;5070221;28;20082;-53
2021/12/13 10:04:14;;;;;;;23.30;15.65;;;;;;;7.17;97.94;101719.44;5073336;28;20044;-52
2021/12/13 10:06:45;;;;;;;23.33;15.20;;;;;;;7.15;98.22;101720.34;5069529;28;20048;-53
2021/12/13 10:09:20;;;;;;;26.35;16.38;;;;;;;7.17;98.72;101714.19;5070737;28;20045;-52
2021/12/13 10:12:07;;;;;;;25.02;16.10;;;;;;;7.20;98.79;101698.34;5075866;28;20056;-53
2021/12/13 10:14:39;;;;;;;23.75;16.70;;;;;;;7.25;97.96;101700.91;5065177;28;20055;-53
2021/12/13 10:17:35;;;;;;;22.15;15.32;;;;;;;7.37;98.14;101696.38;5069452;28;20074;-53
2021/12/13 10:20:33;;;;;;;22.33;16.38;;;;;;;7.48;97.86;101700.63;5067191;28;20048;-54
2021/12/13 10:23:06;;;;;;;22.85;16.27;;;;;;;7.58;97.29;101689.03;5069761;28;20440;-54
2021/12/13 10:25:49;;;;;;;22.23;15.60;;;;;;;7.64;96.53;101691.59;5072920;28;20052;-54
2021/12/13 10:28:22;;;;;;;22.92;15.35;;;;;;;7.64;96.80;101668.75;5065498;28;20493;-55
2021/12/13 10:31:18;;;;;;;23.67;15.07;;;;;;;7.89;96.46;101685.06;5070336;28;20743;-53
2021/12/13 10:33:46;;;;;;;21.90;15.45;;;;;;;7.95;95.61;101690.25;5067375;28;20228;-54
2021/12/13 10:36:15;;;;;;;21.95;15.48;;;;;;;7.93;95.97;101680.63;5076712;28;20380;-53
2021/12/13 10:38:56;;;;;;;22.45;15.35;;;;;;;7.92;95.84;101684.16;5073053;28;20055;-53
2021/12/13 10:42:04;;;;;;;22.55;16.15;;;;;;;7.84;96.36;101676.38;5073515;28;20879;-54
2021/12/13 10:44:47;;;;;;;;;;;;;;;7.83;95.99;101676.38;5064095;28;20051;-53
2021/12/13 10:47:28;;;;;;;24.45;16.00;;;;;;;7.80;96.22;101677.31;5071767;28;19928;-52
2021/12/13 10:49:55;;;;;;;22.73;16.15;;;;;;;7.77;96.94;101676.47;5075054;28;20151;-52
2021/12/13 10:52:34;;;;;;;26.63;16.75;;;;;;;7.80;97.02;101669.38;5072686;28;20063;-54
2021/12/13 10:55:11;;;;;;;23.23;16.17;;;;;;;7.81;97.15;101671.13;5076756;28;20556;-54
2021/12/13 10:57:48;;;;;;;24.73;15.77;;;;;;;7.82;96.56;101672.00;5074991;28;20056;-54
2021/12/13 11:00:37;;;;;;;29.30;16.75;;;;;;;7.85;97.38;101675.47;5069899;28;20125;-54
2021/12/13 11:03:23;;;;;;;24.90;16.25;;;;;;;7.86;97.49;101677.22;5068608;28;20087;-52
2021/12/13 11:05:58;;;;;;;26.83;17.20;;;;;;;7.88;97.10;101678.03;5073326;28;20082;-53
2021/12/13 11:08:29;;;;;;;24.98;17.00;;;;;;;7.85;97.15;101687.78;5072503;28;20649;-52
2021/12/13 11:11:08;;;;;;;27.55;16.20;;;;;;;7.78;97.25;101676.44;5070615;28;20648;-54
2021/12/13 11:13:42;;;;;;;25.92;15.90;;;;;;;7.75;97.51;101676.47;5058718;28;20511;-52
2021/12/13 11:16:29;;;;;;;28.05;16.50;;;;;;;7.76;98.25;101672.97;5072474;28;20061;-53
2021/12/13 11:19:12;;;;;;;23.27;15.73;;;;;;;7.83;98.51;101669.34;5070844;28;20070;-53
2021/12/13 11:21:41;;;;;;;23.83;16.20;;;;;;;7.89;98.62;101669.22;5068833;28;20040;-52
2021/12/13 11:24:14;;;;;;;23.13;16.23;;;;;;;8.01;98.82;101669.06;5076842;28;20059;-52
2021/12/13 11:26:53;;;;;;;24.58;16.38;;;;;;;8.23;98.23;101663.41;5053357;28;20492;-53
2021/12/13 11:29:20;;;;;;;21.98;15.35;;;;;;;8.41;96.97;101666.63;5069437;28;20048;-52
2021/12/13 11:31:55;;;;;;;22.70;14.18;;;;;;;8.49;94.56;101655.97;5067912;28;20044;-52
2021/12/13 11:34:53;;;;;;;21.77;15.30;;;;;;;8.61;94.44;101660.13;5074672;28;20044;-52
2021/12/13 11:37:48;;;;;;;22.17;14.45;;;;;;;8.73;92.53;101655.47;5070574;28;20060;-52
2021/12/13 11:40:38;;;;;;;23.67;14.25;;;;;;;8.78;91.89;101664.19;5075935;28;20047;-55
2021/12/13 11:43:50;;;;;;;19.67;13.38;;;;;;;8.78;91.73;101661.56;5068801;28;20126;-54
2021/12/13 11:46:37;;;;;;;20.63;13.77;;;;;;;8.84;91.83;101654.38;5073120;28;20059;-51
2021/12/13 11:49:46;;;;;;;18.02;12.95;;;;;;;8.91;91.96;101653.38;5068875;28;20047;-55
2021/12/13 11:52:57;;;;;;;19.80;13.45;;;;;;;8.99;90.80;101656.72;5066780;28;20051;-52
2021/12/13 11:55:49;;;;;;;19.27;13.18;;;;;;;9.06;91.06;101651.28;5071574;28;20051;-52
2021/12/13 11:58:53;;;;;;;19.45;13.27;;;;;;;9.15;90.48;101644.94;5070373;28;20048;-53
2021/12/13 12:01:47;;;;;;;18.95;13.70;;;;;;;9.19;90.42;101643.97;5072407;28;20055;-53
2021/12/13 12:04:49;;;;;;;20.10;13.68;;;;;;;9.10;89.72;101641.53;5075132;28;20079;-54
2021/12/13 12:08:07;;;;;;;18.08;12.73;;;;;;;9.03;91.04;101639.91;5073709;28;20067;-54
2021/12/13 12:10:54;;;;;;;;;;;;;;;9.16;90.03;101644.03;5067730;28;20414;-51
2021/12/13 12:13:53;;;;;;;17.27;12.07;;;;;;;9.22;89.23;101640.41;5071514;28;19959;-53
2021/12/13 12:16:25;;;;;;;18.90;12.73;;;;;;;9.21;90.03;101631.59;5067448;28;20052;-52
2021/12/13 12:18:56;;;;;;;18.92;12.98;;;;;;;9.28;89.91;101646.44;5073366;28;20967;-53
2021/12/13 12:26:10;;;;;;;16.27;10.68;;;;;;;9.42;87.60;101639.06;5073224;28;20073;-52
2021/12/13 12:28:37;;;;;;;14.77;11.05;;;;;;;9.40;87.92;101646.16;5069891;28;20086;-52
2021/12/13 12:31:04;;;;;;;20.13;11.32;;;;;;;9.44;87.31;101642.53;5073270;28;20064;-53
2021/12/13 12:33:40;;;;;;;16.20;11.10;;;;;;;9.39;87.24;101640.91;5072834;28;20075;-53
2021/12/13 12:36:40;;;;;;;15.93;10.10;;;;;;;9.34;87.79;101643.63;5071919;28;20066;-52
2021/12/13 12:39:40;;;;;;;15.63;10.70;;;;;;;9.33;87.73;101644.53;5065347;28;20110;-53
2021/12/13 12:42:43;;;;;;;15.20;10.55;;;;;;;9.35;87.35;101648.03;5072879;28;20118;-57
2021/12/13 12:45:49;;;;;;;16.90;11.98;;;;;;;9.37;87.20;101648.00;5054139;28;20036;-53
2021/12/13 12:48:26;;;;;;;14.95;11.27;;;;;;;9.33;87.77;101641.03;5061339;28;20048;-52
2021/12/13 12:51:17;;;;;;;17.95;11.25;;;;;;;9.32;87.74;101641.94;5075624;28;20060;-54